sensor_id;sensor_type;location;lat;lon;timestamp;pressure;altitude;pressure_sealevel;temperature;humidity
47670;BME280;33408;52.062;11.722;2023-04-22T00:00:42;100877.69;;;12.06;95.42
47670;BME280;33408;52.062;11.722;2023-04-22T00:03:08;100874.28;;;12.02;95.65
47670;BME280;33408;52.062;11.722;2023-04-22T00:05:35;100875.22;;;12.00;95.60
47670;BME280;33408;52.062;11.722;2023-04-22T00:08:02;100875.31;;;11.95;96.07
47670;BME280;33408;52.062;11.722;2023-04-22T00:10:30;100870.22;;;11.89;96.50
47670;BME280;33408;52.062;11.722;2023-04-22T00:12:57;100865.97;;;11.86;96.97
47670;BME280;33408;52.062;11.722;2023-04-22T00:15:24;100859.78;;;11.91;96.99
47670;BME280;33408;52.062;11.722;2023-04-22T00:17:51;100860.00;;;11.80;97.51
47670;BME280;33408;52.062;11.722;2023-04-22T00:20:18;100859.94;;;11.83;96.84
47670;BME280;33408;52.062;11.722;2023-04-22T00:22:46;100856.47;;;11.84;97.00
47670;BME280;33408;52.062;11.722;2023-04-22T00:25:12;100851.41;;;11.78;96.95
47670;BME280;33408;52.062;11.722;2023-04-22T00:27:40;100855.63;;;11.83;97.11
47670;BME280;33408;52.062;11.722;2023-04-22T00:30:07;100850.50;;;11.80;97.25
47670;BME280;33408;52.062;11.722;2023-04-22T00:32:35;100846.47;;;11.65;98.41
47670;BME280;33408;52.062;11.722;2023-04-22T00:35:02;100851.66;;;11.65;98.52
47670;BME280;33408;52.062;11.722;2023-04-22T00:37:29;100847.44;;;11.61;98.82
47670;BME280;33408;52.062;11.722;2023-04-22T00:39:55;100849.25;;;11.58;99.43
47670;BME280;33408;52.062;11.722;2023-04-22T00:42:22;100841.41;;;11.61;99.13
47670;BME280;33408;52.062;11.722;2023-04-22T00:44:50;100838.78;;;11.62;98.90
47670;BME280;33408;52.062;11.722;2023-04-22T00:47:18;100832.78;;;11.57;99.07
47670;BME280;33408;52.062;11.722;2023-04-22T00:49:45;100830.09;;;11.62;98.87
47670;BME280;33408;52.062;11.722;2023-04-22T00:52:13;100836.19;;;11.62;98.86
47670;BME280;33408;52.062;11.722;2023-04-22T00:54:40;100830.91;;;11.64;99.14
47670;BME280;33408;52.062;11.722;2023-04-22T00:57:07;100826.63;;;11.63;98.84
47670;BME280;33408;52.062;11.722;2023-04-22T00:59:33;100825.91;;;11.56;99.48
47670;BME280;33408;52.062;11.722;2023-04-22T01:02:02;100825.22;;;11.48;100.00
47670;BME280;33408;52.062;11.722;2023-04-22T01:04:29;100823.50;;;11.47;100.00
47670;BME280;33408;52.062;11.722;2023-04-22T01:06:56;100823.47;;;11.48;99.95
47670;BME280;33408;52.062;11.722;2023-04-22T01:09:23;100826.09;;;11.47;100.00
47670;BME280;33408;52.062;11.722;2023-04-22T01:11:50;100829.84;;;11.34;100.00
47670;BME280;33408;52.062;11.722;2023-04-22T01:14:17;100826.31;;;11.36;100.00
47670;BME280;33408;52.062;11.722;2023-04-22T01:16:44;100821.19;;;11.31;100.00
47670;BME280;33408;52.062;11.722;2023-04-22T01:19:12;100826.53;;;11.25;100.00
47670;BME280;33408;52.062;11.722;2023-04-22T01:21:39;100814.50;;;11.21;100.00
47670;BME280;33408;52.062;11.722;2023-04-22T01:24:07;100816.34;;;11.16;100.00
47670;BME280;33408;52.062;11.722;2023-04-22T01:26:35;100819.91;;;11.09;100.00
47670;BME280;33408;52.062;11.722;2023-04-22T01:29:02;100820.13;;;11.00;100.00
47670;BME280;33408;52.062;11.722;2023-04-22T01:31:29;100818.38;;;11.00;100.00
47670;BME280;33408;52.062;11.722;2023-04-22T01:33:57;100815.72;;;11.03;100.00
47670;BME280;33408;52.062;11.722;2023-04-22T01:36:24;100814.09;;;10.98;100.00
47670;BME280;33408;52.062;11.722;2023-04-22T01:38:51;100813.22;;;10.97;100.00
47670;BME280;33408;52.062;11.722;2023-04-22T01:41:19;100817.72;;;10.89;100.00
47670;BME280;33408;52.062;11.722;2023-04-22T01:43:46;100819.25;;;10.98;100.00
47670;BME280;33408;52.062;11.722;2023-04-22T01:46:15;100817.81;;;10.83;100.00
47670;BME280;33408;52.062;11.722;2023-04-22T01:48:42;100819.34;;;10.93;100.00
47670;BME280;33408;52.062;11.722;2023-04-22T01:51:14;100820.34;;;10.87;100.00
47670;BME280;33408;52.062;11.722;2023-04-22T01:53:41;100823.97;;;10.77;100.00
47670;BME280;33408;52.062;11.722;2023-04-22T01:56:08;100817.09;;;10.74;100.00
47670;BME280;33408;52.062;11.722;2023-04-22T01:58:37;100818.03;;;10.70;100.00
47670;BME280;33408;52.062;11.722;2023-04-22T02:01:04;100817.19;;;10.70;100.00
47670;BME280;33408;52.062;11.722;2023-04-22T02:03:31;100819.09;;;10.60;100.00
47670;BME280;33408;52.062;11.722;2023-04-22T02:05:58;100813.19;;;10.50;100.00
47670;BME280;33408;52.062;11.722;2023-04-22T02:08:24;100815.00;;;10.47;100.00
47670;BME280;33408;52.062;11.722;2023-04-22T02:10:51;100812.34;;;10.51;100.00
47670;BME280;33408;52.062;11.722;2023-04-22T02:13:17;100815.88;;;10.44;100.00
47670;BME280;33408;52.062;11.722;2023-04-22T02:15:45;100818.44;;;10.47;100.00
47670;BME280;33408;52.062;11.722;2023-04-22T02:18:12;100820.97;;;10.50;100.00
47670;BME280;33408;52.062;11.722;2023-04-22T02:20:39;100820.22;;;10.44;100.00
47670;BME280;33408;52.062;11.722;2023-04-22T02:23:05;100822.81;;;10.44;100.00
47670;BME280;33408;52.062;11.722;2023-04-22T02:25:33;100819.38;;;10.42;100.00
47670;BME280;33408;52.062;11.722;2023-04-22T02:28:00;100818.63;;;10.32;100.00
47670;BME280;33408;52.062;11.722;2023-04-22T02:30:27;100815.38;;;10.19;100.00
47670;BME280;33408;52.062;11.722;2023-04-22T02:32:54;100808.50;;;10.18;100.00
47670;BME280;33408;52.062;11.722;2023-04-22T02:35:21;100814.50;;;10.20;100.00
47670;BME280;33408;52.062;11.722;2023-04-22T02:37:48;100815.53;;;10.10;100.00
47670;BME280;33408;52.062;11.722;2023-04-22T02:40:14;100800.88;;;10.09;100.00
47670;BME280;33408;52.062;11.722;2023-04-22T02:42:41;100809.59;;;10.03;100.00
47670;BME280;33408;52.062;11.722;2023-04-22T02:45:08;100804.25;;;10.12;100.00
47670;BME280;33408;52.062;11.722;2023-04-22T02:47:35;100806.91;;;10.08;100.00
47670;BME280;33408;52.062;11.722;2023-04-22T02:50:04;100794.94;;;10.02;100.00
47670;BME280;33408;52.062;11.722;2023-04-22T02:52:32;100800.97;;;10.02;100.00
47670;BME280;33408;52.062;11.722;2023-04-22T02:54:59;100806.13;;;10.04;100.00
47670;BME280;33408;52.062;11.722;2023-04-22T02:57:25;100811.41;;;9.96;100.00
47670;BME280;33408;52.062;11.722;2023-04-22T02:59:52;100806.25;;;9.95;100.00
47670;BME280;33408;52.062;11.722;2023-04-22T03:02:19;100809.91;;;9.81;100.00
47670;BME280;33408;52.062;11.722;2023-04-22T03:04:45;100813.44;;;9.77;100.00
47670;BME280;33408;52.062;11.722;2023-04-22T03:07:13;100812.50;;;9.80;100.00
47670;BME280;33408;52.062;11.722;2023-04-22T03:09:40;100810.91;;;9.71;100.00
47670;BME280;33408;52.062;11.722;2023-04-22T03:12:06;100808.63;;;9.48;100.00
47670;BME280;33408;52.062;11.722;2023-04-22T03:14:33;100813.78;;;9.49;100.00
47670;BME280;33408;52.062;11.722;2023-04-22T03:17:00;100808.59;;;9.49;100.00
47670;BME280;33408;52.062;11.722;2023-04-22T03:19:26;100807.72;;;9.51;100.00
47670;BME280;33408;52.062;11.722;2023-04-22T03:21:53;100806.03;;;9.48;100.00
47670;BME280;33408;52.062;11.722;2023-04-22T03:24:22;100813.69;;;9.56;100.00
47670;BME280;33408;52.062;11.722;2023-04-22T03:26:48;100805.91;;;9.57;100.00
47670;BME280;33408;52.062;11.722;2023-04-22T03:29:15;100813.00;;;9.43;100.00
47670;BME280;33408;52.062;11.722;2023-04-22T03:31:41;100804.41;;;9.41;100.00
47670;BME280;33408;52.062;11.722;2023-04-22T03:34:08;100802.72;;;9.35;100.00
47670;BME280;33408;52.062;11.722;2023-04-22T03:36:34;100795.94;;;9.26;100.00
47670;BME280;33408;52.062;11.722;2023-04-22T03:39:01;100797.63;;;9.30;100.00
47670;BME280;33408;52.062;11.722;2023-04-22T03:41:29;100789.06;;;9.25;100.00
47670;BME280;33408;52.062;11.722;2023-04-22T03:43:55;100791.72;;;9.19;100.00
47670;BME280;33408;52.062;11.722;2023-04-22T03:46:22;100789.19;;;9.16;100.00
47670;BME280;33408;52.062;11.722;2023-04-22T03:48:49;100789.22;;;9.13;100.00
47670;BME280;33408;52.062;11.722;2023-04-22T03:51:15;100787.44;;;9.18;100.00
47670;BME280;33408;52.062;11.722;2023-04-22T03:53:42;100792.63;;;9.15;100.00
47670;BME280;33408;52.062;11.722;2023-04-22T03:56:08;100788.38;;;9.09;100.00
47670;BME280;33408;52.062;11.722;2023-04-22T03:58:36;100788.38;;;9.09;100.00
47670;BME280;33408;52.062;11.722;2023-04-22T04:01:03;100792.69;;;9.10;100.00
47670;BME280;33408;52.062;11.722;2023-04-22T04:03:30;100792.63;;;9.17;100.00
47670;BME280;33408;52.062;11.722;2023-04-22T04:05:56;100785.78;;;9.11;100.00
47670;BME280;33408;52.062;11.722;2023-04-22T04:08:23;100786.63;;;9.15;100.00
47670;BME280;33408;52.062;11.722;2023-04-22T04:10:49;100785.88;;;9.03;100.00
47670;BME280;33408;52.062;11.722;2023-04-22T04:13:16;100787.47;;;9.15;100.00
47670;BME280;33408;52.062;11.722;2023-04-22T04:15:44;100781.44;;;9.15;100.00
47670;BME280;33408;52.062;11.722;2023-04-22T04:18:11;100785.63;;;9.23;100.00
47670;BME280;33408;52.062;11.722;2023-04-22T04:20:38;100783.16;;;9.14;100.00
47670;BME280;33408;52.062;11.722;2023-04-22T04:23:04;100781.25;;;9.30;100.00
47670;BME280;33408;52.062;11.722;2023-04-22T04:25:31;100782.06;;;9.32;100.00
47670;BME280;33408;52.062;11.722;2023-04-22T04:28:03;100781.19;;;9.35;100.00
47670;BME280;33408;52.062;11.722;2023-04-22T04:30:33;100794.94;;;9.37;100.00
47670;BME280;33408;52.062;11.722;2023-04-22T04:33:02;100789.84;;;9.32;100.00
47670;BME280;33408;52.062;11.722;2023-04-22T04:35:31;100791.34;;;9.50;100.00
47670;BME280;33408;52.062;11.722;2023-04-22T04:37:58;100789.06;;;10.47;100.00
47670;BME280;33408;52.062;11.722;2023-04-22T04:40:25;100787.13;;;10.60;100.00
47670;BME280;33408;52.062;11.722;2023-04-22T04:42:53;100788.09;;;11.43;100.00
47670;BME280;33408;52.062;11.722;2023-04-22T04:45:20;100780.72;;;12.04;100.00
47670;BME280;33408;52.062;11.722;2023-04-22T04:47:46;100781.84;;;12.28;100.00
47670;BME280;33408;52.062;11.722;2023-04-22T04:50:16;100783.34;;;12.38;100.00
47670;BME280;33408;52.062;11.722;2023-04-22T04:52:43;100777.66;;;12.57;100.00
47670;BME280;33408;52.062;11.722;2023-04-22T04:55:09;100787.91;;;13.59;96.19
47670;BME280;33408;52.062;11.722;2023-04-22T04:57:36;100787.16;;;13.54;93.31
47670;BME280;33408;52.062;11.722;2023-04-22T05:00:03;100779.44;;;13.50;93.21
47670;BME280;33408;52.062;11.722;2023-04-22T05:02:30;100788.53;;;13.06;94.61
47670;BME280;33408;52.062;11.722;2023-04-22T05:04:57;100781.03;;;13.56;92.21
47670;BME280;33408;52.062;11.722;2023-04-22T05:07:25;100784.16;;;13.67;89.91
47670;BME280;33408;52.062;11.722;2023-04-22T05:09:51;100782.38;;;13.68;88.63
47670;BME280;33408;52.062;11.722;2023-04-22T05:12:18;100786.78;;;14.74;85.42
47670;BME280;33408;52.062;11.722;2023-04-22T05:14:44;100782.06;;;14.59;83.80
47670;BME280;33408;52.062;11.722;2023-04-22T05:17:11;100788.94;;;15.12;81.63
47670;BME280;33408;52.062;11.722;2023-04-22T05:19:38;100785.03;;;14.75;82.34
47670;BME280;33408;52.062;11.722;2023-04-22T05:22:05;100792.00;;;15.00;80.02
47670;BME280;33408;52.062;11.722;2023-04-22T05:24:33;100790.63;;;15.13;80.59
47670;BME280;33408;52.062;11.722;2023-04-22T05:27:00;100786.09;;;14.69;79.43
47670;BME280;33408;52.062;11.722;2023-04-22T05:29:27;100793.34;;;14.86;79.45
47670;BME280;33408;52.062;11.722;2023-04-22T05:31:53;100784.97;;;15.71;75.60
47670;BME280;33408;52.062;11.722;2023-04-22T05:34:20;100794.28;;;15.09;76.76
47670;BME280;33408;52.062;11.722;2023-04-22T05:36:47;100789.28;;;15.03;78.64
47670;BME280;33408;52.062;11.722;2023-04-22T05:39:13;100799.31;;;15.61;78.30
47670;BME280;33408;52.062;11.722;2023-04-22T05:41:41;100799.38;;;15.36;76.77
47670;BME280;33408;52.062;11.722;2023-04-22T05:44:08;100804.31;;;14.44;81.11
47670;BME280;33408;52.062;11.722;2023-04-22T05:46:35;100801.72;;;14.44;84.46
47670;BME280;33408;52.062;11.722;2023-04-22T05:49:01;100789.28;;;15.03;80.96
47670;BME280;33408;52.062;11.722;2023-04-22T05:51:28;100790.25;;;14.75;80.49
47670;BME280;33408;52.062;11.722;2023-04-22T05:53:55;100791.00;;;15.04;80.26
47670;BME280;33408;52.062;11.722;2023-04-22T05:56:22;100790.03;;;14.81;79.20
47670;BME280;33408;52.062;11.722;2023-04-22T05:58:49;100787.34;;;14.83;78.95
47670;BME280;33408;52.062;11.722;2023-04-22T06:01:16;100785.25;;;14.42;82.37
47670;BME280;33408;52.062;11.722;2023-04-22T06:03:43;100772.59;;;14.56;82.68
47670;BME280;33408;52.062;11.722;2023-04-22T06:06:09;100786.81;;;14.21;85.90
47670;BME280;33408;52.062;11.722;2023-04-22T06:08:36;100777.78;;;14.83;83.10
47670;BME280;33408;52.062;11.722;2023-04-22T06:11:02;100771.53;;;14.87;83.03
47670;BME280;33408;52.062;11.722;2023-04-22T06:13:29;100773.63;;;14.77;82.34
47670;BME280;33408;52.062;11.722;2023-04-22T06:15:57;100780.59;;;14.25;85.37
47670;BME280;33408;52.062;11.722;2023-04-22T06:18:25;100778.13;;;15.21;81.49
47670;BME280;33408;52.062;11.722;2023-04-22T06:20:51;100781.25;;;14.84;83.20
47670;BME280;33408;52.062;11.722;2023-04-22T06:23:18;100768.38;;;15.03;83.23
47670;BME280;33408;52.062;11.722;2023-04-22T06:25:44;100781.19;;;14.85;84.76
47670;BME280;33408;52.062;11.722;2023-04-22T06:28:11;100778.19;;;14.96;85.32
47670;BME280;33408;52.062;11.722;2023-04-22T06:30:38;100796.69;;;14.38;85.55
47670;BME280;33408;52.062;11.722;2023-04-22T06:33:06;100782.13;;;14.57;88.26
47670;BME280;33408;52.062;11.722;2023-04-22T06:35:32;100770.00;;;14.82;87.42
47670;BME280;33408;52.062;11.722;2023-04-22T06:38:00;100772.50;;;14.59;89.08
47670;BME280;33408;52.062;11.722;2023-04-22T06:40:28;100768.50;;;14.49;88.21
47670;BME280;33408;52.062;11.722;2023-04-22T06:42:54;100778.91;;;13.96;92.16
47670;BME280;33408;52.062;11.722;2023-04-22T06:45:21;100772.28;;;14.14;92.22
47670;BME280;33408;52.062;11.722;2023-04-22T06:47:47;100765.25;;;14.43;91.13
47670;BME280;33408;52.062;11.722;2023-04-22T06:50:15;100757.69;;;14.35;89.53
47670;BME280;33408;52.062;11.722;2023-04-22T06:52:42;100763.34;;;14.48;91.40
47670;BME280;33408;52.062;11.722;2023-04-22T06:55:09;100767.19;;;14.63;89.68
47670;BME280;33408;52.062;11.722;2023-04-22T06:57:35;100762.09;;;14.58;89.36
47670;BME280;33408;52.062;11.722;2023-04-22T07:00:03;100768.63;;;14.71;89.45
47670;BME280;33408;52.062;11.722;2023-04-22T07:02:29;100756.56;;;14.42;90.50
47670;BME280;33408;52.062;11.722;2023-04-22T07:04:56;100764.75;;;14.56;91.07
47670;BME280;33408;52.062;11.722;2023-04-22T07:07:24;100766.47;;;14.57;92.17
47670;BME280;33408;52.062;11.722;2023-04-22T07:09:51;100759.31;;;14.89;93.15
47670;BME280;33408;52.062;11.722;2023-04-22T07:12:17;100755.44;;;15.00;91.40
47670;BME280;33408;52.062;11.722;2023-04-22T07:14:44;100762.25;;;15.27;89.49
47670;BME280;33408;52.062;11.722;2023-04-22T07:17:11;100758.94;;;14.99;89.22
47670;BME280;33408;52.062;11.722;2023-04-22T07:19:38;100768.41;;;15.48;89.94
47670;BME280;33408;52.062;11.722;2023-04-22T07:22:04;100766.63;;;15.27;88.98
47670;BME280;33408;52.062;11.722;2023-04-22T07:24:32;100763.84;;;15.77;89.06
47670;BME280;33408;52.062;11.722;2023-04-22T07:26:59;100771.84;;;15.27;87.18
47670;BME280;33408;52.062;11.722;2023-04-22T07:29:26;100761.72;;;15.65;86.08
47670;BME280;33408;52.062;11.722;2023-04-22T07:31:53;100764.66;;;15.56;86.50
47670;BME280;33408;52.062;11.722;2023-04-22T07:34:19;100760.81;;;15.88;84.35
47670;BME280;33408;52.062;11.722;2023-04-22T07:36:46;100761.59;;;15.90;86.39
47670;BME280;33408;52.062;11.722;2023-04-22T07:39:12;100768.72;;;16.09;84.96
47670;BME280;33408;52.062;11.722;2023-04-22T07:41:40;100766.94;;;16.09;85.97
47670;BME280;33408;52.062;11.722;2023-04-22T07:44:07;100758.53;;;16.44;86.01
47670;BME280;33408;52.062;11.722;2023-04-22T07:46:34;100754.81;;;16.49;84.04
47670;BME280;33408;52.062;11.722;2023-04-22T07:49:07;100752.19;;;16.49;82.49
47670;BME280;33408;52.062;11.722;2023-04-22T07:51:34;100753.28;;;16.44;83.57
47670;BME280;33408;52.062;11.722;2023-04-22T07:54:00;100737.13;;;16.75;83.89
47670;BME280;33408;52.062;11.722;2023-04-22T07:56:27;100743.69;;;17.04;83.64
47670;BME280;33408;52.062;11.722;2023-04-22T07:58:55;100743.13;;;16.98;81.37
47670;BME280;33408;52.062;11.722;2023-04-22T08:01:21;100740.59;;;17.34;81.86
47670;BME280;33408;52.062;11.722;2023-04-22T08:03:48;100744.41;;;17.27;80.70
47670;BME280;33408;52.062;11.722;2023-04-22T08:06:15;100731.38;;;17.06;79.01
47670;BME280;33408;52.062;11.722;2023-04-22T08:08:41;100727.13;;;17.42;78.09
47670;BME280;33408;52.062;11.722;2023-04-22T08:11:08;100727.53;;;17.52;78.00
47670;BME280;33408;52.062;11.722;2023-04-22T08:13:34;100728.97;;;17.40;75.97
47670;BME280;33408;52.062;11.722;2023-04-22T08:16:02;100728.06;;;17.77;74.29
47670;BME280;33408;52.062;11.722;2023-04-22T08:18:31;100723.47;;;17.82;72.37
47670;BME280;33408;52.062;11.722;2023-04-22T08:20:58;100731.75;;;17.73;76.67
47670;BME280;33408;52.062;11.722;2023-04-22T08:23:24;100724.28;;;18.02;74.67
47670;BME280;33408;52.062;11.722;2023-04-22T08:25:53;100729.06;;;18.11;74.86
47670;BME280;33408;52.062;11.722;2023-04-22T08:28:19;100729.59;;;18.00;74.76
47670;BME280;33408;52.062;11.722;2023-04-22T08:30:46;100729.75;;;17.97;75.71
47670;BME280;33408;52.062;11.722;2023-04-22T08:33:14;100717.63;;;18.30;73.68
47670;BME280;33408;52.062;11.722;2023-04-22T08:35:41;100723.03;;;18.27;71.58
47670;BME280;33408;52.062;11.722;2023-04-22T08:38:07;100721.72;;;18.35;73.57
47670;BME280;33408;52.062;11.722;2023-04-22T08:40:34;100721.56;;;18.72;72.56
47670;BME280;33408;52.062;11.722;2023-04-22T08:43:01;100707.72;;;18.52;70.24
47670;BME280;33408;52.062;11.722;2023-04-22T08:45:28;100711.94;;;18.72;68.30
47670;BME280;33408;52.062;11.722;2023-04-22T08:47:56;100707.66;;;18.36;67.96
47670;BME280;33408;52.062;11.722;2023-04-22T08:50:24;100709.75;;;18.81;65.42
47670;BME280;33408;52.062;11.722;2023-04-22T08:52:50;100706.78;;;18.71;64.64
47670;BME280;33408;52.062;11.722;2023-04-22T08:55:17;100695.00;;;18.78;62.34
47670;BME280;33408;52.062;11.722;2023-04-22T08:57:44;100700.38;;;18.92;63.83
47670;BME280;33408;52.062;11.722;2023-04-22T09:00:13;100693.69;;;18.87;62.62
47670;BME280;33408;52.062;11.722;2023-04-22T09:02:40;100692.78;;;18.70;63.15
47670;BME280;33408;52.062;11.722;2023-04-22T09:05:09;100699.06;;;18.68;62.71
47670;BME280;33408;52.062;11.722;2023-04-22T09:07:38;100692.78;;;18.70;61.32
47670;BME280;33408;52.062;11.722;2023-04-22T09:10:06;100693.53;;;19.06;61.89
47670;BME280;33408;52.062;11.722;2023-04-22T09:12:33;100690.47;;;18.98;62.50
47670;BME280;33408;52.062;11.722;2023-04-22T09:14:59;100690.75;;;18.75;62.74
47670;BME280;33408;52.062;11.722;2023-04-22T09:17:30;100696.94;;;18.74;63.94
47670;BME280;33408;52.062;11.722;2023-04-22T09:19:57;100690.03;;;18.89;63.77
47670;BME280;33408;52.062;11.722;2023-04-22T09:22:25;100693.19;;;19.12;65.09
47670;BME280;33408;52.062;11.722;2023-04-22T09:24:54;100692.44;;;19.42;64.81
47670;BME280;33408;52.062;11.722;2023-04-22T09:27:23;100692.53;;;19.08;64.13
47670;BME280;33408;52.062;11.722;2023-04-22T09:29:51;100692.56;;;19.71;64.72
47670;BME280;33408;52.062;11.722;2023-04-22T09:32:17;100692.28;;;19.91;65.93
47670;BME280;33408;52.062;11.722;2023-04-22T09:34:48;100692.50;;;19.56;64.94
47670;BME280;33408;52.062;11.722;2023-04-22T09:37:18;100698.44;;;19.60;66.88
47670;BME280;33408;52.062;11.722;2023-04-22T09:39:47;100695.47;;;19.66;64.41
47670;BME280;33408;52.062;11.722;2023-04-22T09:42:15;100691.78;;;19.68;63.86
47670;BME280;33408;52.062;11.722;2023-04-22T09:44:41;100688.59;;;19.63;61.67
47670;BME280;33408;52.062;11.722;2023-04-22T09:47:10;100692.06;;;19.80;62.47
47670;BME280;33408;52.062;11.722;2023-04-22T09:49:36;100684.44;;;20.20;61.51
47670;BME280;33408;52.062;11.722;2023-04-22T09:52:04;100689.03;;;20.02;61.21
47670;BME280;33408;52.062;11.722;2023-04-22T09:54:30;100680.81;;;20.22;59.96
47670;BME280;33408;52.062;11.722;2023-04-22T09:56:57;100681.56;;;20.39;59.34
47670;BME280;33408;52.062;11.722;2023-04-22T09:59:26;100674.41;;;20.41;59.60
47670;BME280;33408;52.062;11.722;2023-04-22T10:01:55;100679.00;;;20.23;57.86
47670;BME280;33408;52.062;11.722;2023-04-22T10:04:22;100677.63;;;20.32;57.87
47670;BME280;33408;52.062;11.722;2023-04-22T10:06:51;100671.88;;;20.39;58.40
47670;BME280;33408;52.062;11.722;2023-04-22T10:09:19;100675.28;;;20.27;56.96
47670;BME280;33408;52.062;11.722;2023-04-22T10:11:48;100677.16;;;20.54;57.18
47670;BME280;33408;52.062;11.722;2023-04-22T10:14:14;100671.41;;;20.33;56.65
47670;BME280;33408;52.062;11.722;2023-04-22T10:16:45;100659.84;;;20.35;57.45
47670;BME280;33408;52.062;11.722;2023-04-22T10:19:15;100666.53;;;20.84;56.84
47670;BME280;33408;52.062;11.722;2023-04-22T10:21:45;100653.19;;;20.87;56.16
47670;BME280;33408;52.062;11.722;2023-04-22T10:24:16;100662.44;;;20.66;58.27
47670;BME280;33408;52.062;11.722;2023-04-22T10:26:48;100659.00;;;20.92;55.78
47670;BME280;33408;52.062;11.722;2023-04-22T10:29:17;100652.34;;;20.87;55.24
47670;BME280;33408;52.062;11.722;2023-04-22T10:31:52;100656.25;;;21.36;55.62
47670;BME280;33408;52.062;11.722;2023-04-22T10:34:19;100644.16;;;21.19;54.45
47670;BME280;33408;52.062;11.722;2023-04-22T10:36:58;100644.59;;;20.98;56.08
47670;BME280;33408;52.062;11.722;2023-04-22T10:39:26;100650.19;;;20.65;58.63
47670;BME280;33408;52.062;11.722;2023-04-22T10:41:56;100640.47;;;20.51;57.41
47670;BME280;33408;52.062;11.722;2023-04-22T10:44:44;100643.63;;;20.99;55.59
47670;BME280;33408;52.062;11.722;2023-04-22T10:47:23;100645.34;;;21.27;54.42
47670;BME280;33408;52.062;11.722;2023-04-22T10:49:49;100654.94;;;21.01;53.91
47670;BME280;33408;52.062;11.722;2023-04-22T10:52:27;100647.88;;;21.02;54.35
47670;BME280;33408;52.062;11.722;2023-04-22T10:54:55;100653.28;;;21.27;54.20
47670;BME280;33408;52.062;11.722;2023-04-22T10:57:28;100648.75;;;21.57;55.57
47670;BME280;33408;52.062;11.722;2023-04-22T11:00:06;100647.28;;;21.53;54.62
47670;BME280;33408;52.062;11.722;2023-04-22T11:02:44;100634.81;;;21.27;54.14
47670;BME280;33408;52.062;11.722;2023-04-22T11:05:18;100624.22;;;21.69;54.46
47670;BME280;33408;52.062;11.722;2023-04-22T11:07:49;100625.88;;;21.43;53.74
47670;BME280;33408;52.062;11.722;2023-04-22T11:10:32;100614.38;;;21.71;54.41
47670;BME280;33408;52.062;11.722;2023-04-22T11:12:59;100618.19;;;21.67;53.46
47670;BME280;33408;52.062;11.722;2023-04-22T11:15:28;100615.25;;;21.97;53.80
47670;BME280;33408;52.062;11.722;2023-04-22T11:17:57;100612.63;;;22.10;54.93
47670;BME280;33408;52.062;11.722;2023-04-22T11:20:23;100615.31;;;21.70;54.40
47670;BME280;33408;52.062;11.722;2023-04-22T11:22:51;100612.50;;;21.99;52.80
47670;BME280;33408;52.062;11.722;2023-04-22T11:25:19;100610.38;;;22.04;53.76
47670;BME280;33408;52.062;11.722;2023-04-22T11:27:47;100602.38;;;22.06;54.04
47670;BME280;33408;52.062;11.722;2023-04-22T11:30:16;100614.00;;;21.90;53.56
47670;BME280;33408;52.062;11.722;2023-04-22T11:32:44;100602.59;;;21.90;51.97
47670;BME280;33408;52.062;11.722;2023-04-22T11:35:13;100595.50;;;22.29;52.38
47670;BME280;33408;52.062;11.722;2023-04-22T11:37:41;100597.63;;;22.24;53.20
47670;BME280;33408;52.062;11.722;2023-04-22T11:40:09;100591.81;;;22.31;53.42
47670;BME280;33408;52.062;11.722;2023-04-22T11:42:36;100601.50;;;22.56;53.37
47670;BME280;33408;52.062;11.722;2023-04-22T11:45:04;100588.81;;;22.62;50.85
47670;BME280;33408;52.062;11.722;2023-04-22T11:47:32;100590.50;;;22.63;51.46
47670;BME280;33408;52.062;11.722;2023-04-22T11:50:00;100594.78;;;22.27;50.79
47670;BME280;33408;52.062;11.722;2023-04-22T11:52:49;100591.38;;;22.50;52.11
47670;BME280;33408;52.062;11.722;2023-04-22T11:55:18;100583.34;;;22.52;50.56
47670;BME280;33408;52.062;11.722;2023-04-22T11:57:51;100588.00;;;22.48;48.58
47670;BME280;33408;52.062;11.722;2023-04-22T12:00:18;100578.94;;;22.52;49.05
47670;BME280;33408;52.062;11.722;2023-04-22T12:02:54;100579.66;;;22.54;47.27
47670;BME280;33408;52.062;11.722;2023-04-22T12:05:31;100583.16;;;22.79;47.57
47670;BME280;33408;52.062;11.722;2023-04-22T12:08:01;100575.97;;;22.81;46.38
47670;BME280;33408;52.062;11.722;2023-04-22T12:10:27;100566.22;;;22.57;41.59
47670;BME280;33408;52.062;11.722;2023-04-22T12:12:54;100567.59;;;22.87;41.86
47670;BME280;33408;52.062;11.722;2023-04-22T12:15:22;100561.59;;;22.48;40.99
47670;BME280;33408;52.062;11.722;2023-04-22T12:17:49;100563.41;;;22.48;43.34
47670;BME280;33408;52.062;11.722;2023-04-22T12:20:16;100562.75;;;22.44;43.11
47670;BME280;33408;52.062;11.722;2023-04-22T12:22:43;100568.03;;;22.44;39.50
47670;BME280;33408;52.062;11.722;2023-04-22T12:25:10;100557.31;;;22.58;40.31
47670;BME280;33408;52.062;11.722;2023-04-22T12:27:37;100561.56;;;22.61;42.70
47670;BME280;33408;52.062;11.722;2023-04-22T12:30:04;100559.50;;;22.77;40.63
47670;BME280;33408;52.062;11.722;2023-04-22T12:32:31;100556.00;;;22.77;41.26
47670;BME280;33408;52.062;11.722;2023-04-22T12:34:58;100558.81;;;22.87;41.08
47670;BME280;33408;52.062;11.722;2023-04-22T12:37:24;100552.19;;;22.81;42.00
47670;BME280;33408;52.062;11.722;2023-04-22T12:39:52;100550.06;;;22.86;43.44